sensor_id;sensor_type;location;lat;lon;timestamp;pressure;altitude;pressure_sealevel;temperature;humidity
46944;BME280;32678;43.852;25.952;2023-04-15T00:04:38;100320.22;;;14.63;63.24
46944;BME280;32678;43.852;25.952;2023-04-15T00:09:35;100328.63;;;14.85;62.65
46944;BME280;32678;43.852;25.952;2023-04-15T00:14:32;100323.66;;;14.95;62.13
46944;BME280;32678;43.852;25.952;2023-04-15T00:19:29;100308.50;;;14.98;62.11
46944;BME280;32678;43.852;25.952;2023-04-15T00:24:27;100322.88;;;14.93;62.56
46944;BME280;32678;43.852;25.952;2023-04-15T00:29:24;100345.84;;;15.06;64.41
46944;BME280;32678;43.852;25.952;2023-04-15T00:34:20;100341.69;;;15.32;64.18
46944;BME280;32678;43.852;25.952;2023-04-15T00:39:17;100351.13;;;15.52;64.59
46944;BME280;32678;43.852;25.952;2023-04-15T00:44:14;100358.56;;;15.59;65.05
46944;BME280;32678;43.852;25.952;2023-04-15T00:49:16;100355.78;;;15.77;63.90
46944;BME280;32678;43.852;25.952;2023-04-15T00:54:13;100354.28;;;15.87;63.34
46944;BME280;32678;43.852;25.952;2023-04-15T00:59:10;100359.19;;;15.93;63.00
46944;BME280;32678;43.852;25.952;2023-04-15T01:04:07;100359.72;;;15.98;62.73
46944;BME280;32678;43.852;25.952;2023-04-15T01:09:06;100347.84;;;15.77;64.38
46944;BME280;32678;43.852;25.952;2023-04-15T01:14:03;100342.28;;;15.37;65.29
46944;BME280;32678;43.852;25.952;2023-04-15T01:19:00;100358.41;;;15.33;66.56
46944;BME280;32678;43.852;25.952;2023-04-15T01:23:58;100374.66;;;15.25;67.40
46944;BME280;32678;43.852;25.952;2023-04-15T01:29:00;100395.38;;;15.33;67.41
46944;BME280;32678;43.852;25.952;2023-04-15T01:33:58;100396.16;;;15.65;66.52
46944;BME280;32678;43.852;25.952;2023-04-15T01:38:55;100370.94;;;15.59;66.56
46944;BME280;32678;43.852;25.952;2023-04-15T01:43:52;100387.97;;;15.39;67.83
46944;BME280;32678;43.852;25.952;2023-04-15T01:48:50;100374.09;;;15.50;67.73
46944;BME280;32678;43.852;25.952;2023-04-15T01:53:46;100383.81;;;15.49;67.21
46944;BME280;32678;43.852;25.952;2023-04-15T01:58:43;100396.81;;;15.54;66.17
46944;BME280;32678;43.852;25.952;2023-04-15T02:03:40;100380.78;;;14.96;68.07
46944;BME280;32678;43.852;25.952;2023-04-15T02:08:38;100379.69;;;15.30;67.40
46944;BME280;32678;43.852;25.952;2023-04-15T02:13:36;100356.25;;;15.09;67.44
46944;BME280;32678;43.852;25.952;2023-04-15T02:18:33;100364.66;;;14.55;70.10
46944;BME280;32678;43.852;25.952;2023-04-15T02:23:30;100375.22;;;14.22;71.97
46944;BME280;32678;43.852;25.952;2023-04-15T02:28:27;100385.50;;;14.11;73.06
46944;BME280;32678;43.852;25.952;2023-04-15T02:33:24;100400.66;;;14.56;71.76
46944;BME280;32678;43.852;25.952;2023-04-15T02:38:21;100393.63;;;15.02;70.33
46944;BME280;32678;43.852;25.952;2023-04-15T02:43:17;100392.22;;;15.26;69.12
46944;BME280;32678;43.852;25.952;2023-04-15T02:48:15;100342.00;;;15.42;68.50
46944;BME280;32678;43.852;25.952;2023-04-15T02:53:13;100354.84;;;15.48;67.63
46944;BME280;32678;43.852;25.952;2023-04-15T02:58:10;100387.63;;;15.59;67.16
46944;BME280;32678;43.852;25.952;2023-04-15T03:03:07;100393.34;;;15.68;66.79
46944;BME280;32678;43.852;25.952;2023-04-15T03:08:06;100387.94;;;15.69;66.91
46944;BME280;32678;43.852;25.952;2023-04-15T03:13:03;100371.44;;;15.50;67.31
46944;BME280;32678;43.852;25.952;2023-04-15T03:17:59;100365.59;;;15.45;67.17
46944;BME280;32678;43.852;25.952;2023-04-15T03:22:56;100386.72;;;15.45;67.35
46944;BME280;32678;43.852;25.952;2023-04-15T03:27:54;100417.69;;;15.43;67.10
46944;BME280;32678;43.852;25.952;2023-04-15T03:32:51;100444.06;;;15.13;68.02
46944;BME280;32678;43.852;25.952;2023-04-15T03:37:49;100433.94;;;14.90;68.34
46944;BME280;32678;43.852;25.952;2023-04-15T03:42:47;100439.34;;;14.40;70.64
46944;BME280;32678;43.852;25.952;2023-04-15T03:47:44;100441.47;;;14.16;71.14
46944;BME280;32678;43.852;25.952;2023-04-15T03:52:41;100434.00;;;14.41;70.74
46944;BME280;32678;43.852;25.952;2023-04-15T03:57:38;100443.78;;;14.55;70.68
46944;BME280;32678;43.852;25.952;2023-04-15T04:02:34;100428.13;;;14.83;70.49
46944;BME280;32678;43.852;25.952;2023-04-15T04:07:33;100433.16;;;14.88;68.45
46944;BME280;32678;43.852;25.952;2023-04-15T04:12:30;100436.50;;;14.76;68.14
46944;BME280;32678;43.852;25.952;2023-04-15T04:17:27;100444.13;;;14.96;70.08
46944;BME280;32678;43.852;25.952;2023-04-15T04:22:24;100425.81;;;15.24;70.73
46944;BME280;32678;43.852;25.952;2023-04-15T04:27:22;100418.53;;;15.43;70.86
46944;BME280;32678;43.852;25.952;2023-04-15T04:32:18;100450.03;;;15.62;70.55
46944;BME280;32678;43.852;25.952;2023-04-15T04:37:15;100456.38;;;15.74;69.48
46944;BME280;32678;43.852;25.952;2023-04-15T04:42:11;100465.91;;;15.46;69.56
46944;BME280;32678;43.852;25.952;2023-04-15T04:47:09;100475.22;;;15.53;69.68
46944;BME280;32678;43.852;25.952;2023-04-15T04:52:06;100474.78;;;15.30;69.42
46944;BME280;32678;43.852;25.952;2023-04-15T04:57:02;100485.63;;;14.94;70.97
46944;BME280;32678;43.852;25.952;2023-04-15T05:01:59;100475.31;;;14.73;72.35
46944;BME280;32678;43.852;25.952;2023-04-15T05:06:57;100502.00;;;14.35;74.23
46944;BME280;32678;43.852;25.952;2023-04-15T05:11:54;100504.59;;;14.02;75.39
46944;BME280;32678;43.852;25.952;2023-04-15T05:16:51;100500.41;;;13.80;75.47
46944;BME280;32678;43.852;25.952;2023-04-15T05:21:48;100515.47;;;13.42;78.39
46944;BME280;32678;43.852;25.952;2023-04-15T05:26:45;100531.56;;;13.36;79.00
46944;BME280;32678;43.852;25.952;2023-04-15T05:31:42;100520.91;;;13.74;77.01
46944;BME280;32678;43.852;25.952;2023-04-15T05:36:39;100528.16;;;13.87;76.24
46944;BME280;32678;43.852;25.952;2023-04-15T05:41:36;100521.41;;;13.99;76.46
46944;BME280;32678;43.852;25.952;2023-04-15T05:46:33;100533.81;;;14.49;74.46
46944;BME280;32678;43.852;25.952;2023-04-15T05:51:30;100533.97;;;13.94;76.57
46944;BME280;32678;43.852;25.952;2023-04-15T05:56:27;100534.28;;;14.05;76.08
46944;BME280;32678;43.852;25.952;2023-04-15T06:01:23;100543.41;;;13.81;76.32
46944;BME280;32678;43.852;25.952;2023-04-15T06:06:21;100529.28;;;13.48;78.36
46944;BME280;32678;43.852;25.952;2023-04-15T06:11:18;100529.28;;;13.65;77.22
46944;BME280;32678;43.852;25.952;2023-04-15T06:16:16;100529.94;;;13.87;76.30
46944;BME280;32678;43.852;25.952;2023-04-15T06:21:13;100542.50;;;13.99;74.57
46944;BME280;32678;43.852;25.952;2023-04-15T06:26:10;100539.78;;;14.18;74.27
46944;BME280;32678;43.852;25.952;2023-04-15T06:31:07;100541.09;;;14.44;73.07
46944;BME280;32678;43.852;25.952;2023-04-15T06:36:03;100546.13;;;14.65;72.39
46944;BME280;32678;43.852;25.952;2023-04-15T06:41:00;100555.34;;;14.57;72.98
46944;BME280;32678;43.852;25.952;2023-04-15T06:45:58;100568.22;;;14.63;74.04
46944;BME280;32678;43.852;25.952;2023-04-15T06:50:55;100563.38;;;14.71;75.13
46944;BME280;32678;43.852;25.952;2023-04-15T06:55:58;100565.56;;;14.80;75.82
46944;BME280;32678;43.852;25.952;2023-04-15T07:01:19;100558.66;;;14.78;74.29
46944;BME280;32678;43.852;25.952;2023-04-15T07:06:16;100552.44;;;14.79;74.90
46944;BME280;32678;43.852;25.952;2023-04-15T07:11:13;100555.19;;;14.93;73.70
46944;BME280;32678;43.852;25.952;2023-04-15T07:16:15;100570.38;;;15.21;72.45
46944;BME280;32678;43.852;25.952;2023-04-15T07:21:15;100582.13;;;15.15;73.06
46944;BME280;32678;43.852;25.952;2023-04-15T07:26:12;100596.78;;;15.05;74.70
46944;BME280;32678;43.852;25.952;2023-04-15T07:31:08;100602.16;;;15.19;71.99
46944;BME280;32678;43.852;25.952;2023-04-15T07:36:05;100615.91;;;15.41;71.73
46944;BME280;32678;43.852;25.952;2023-04-15T07:41:06;100621.03;;;15.60;71.47
46944;BME280;32678;43.852;25.952;2023-04-15T07:46:15;100626.25;;;15.77;69.40
46944;BME280;32678;43.852;25.952;2023-04-15T07:51:16;100639.03;;;15.85;69.05
46944;BME280;32678;43.852;25.952;2023-04-15T07:56:15;100647.66;;;16.18;66.65
46944;BME280;32678;43.852;25.952;2023-04-15T08:01:12;100651.22;;;16.33;65.67
46944;BME280;32678;43.852;25.952;2023-04-15T08:06:09;100657.78;;;16.41;65.71
46944;BME280;32678;43.852;25.952;2023-04-15T08:11:06;100667.69;;;16.38;65.82
46944;BME280;32678;43.852;25.952;2023-04-15T08:16:15;100666.44;;;16.29;66.22
46944;BME280;32678;43.852;25.952;2023-04-15T08:21:13;100667.75;;;16.22;65.70
46944;BME280;32678;43.852;25.952;2023-04-15T08:26:10;100668.84;;;16.18;67.00
46944;BME280;32678;43.852;25.952;2023-04-15T08:31:08;100673.00;;;16.52;63.92
46944;BME280;32678;43.852;25.952;2023-04-15T08:36:06;100668.66;;;16.37;62.15
46944;BME280;32678;43.852;25.952;2023-04-15T08:41:10;100679.38;;;16.34;64.71
46944;BME280;32678;43.852;25.952;2023-04-15T08:46:08;100671.41;;;16.50;64.21
46944;BME280;32678;43.852;25.952;2023-04-15T08:51:05;100669.91;;;16.75;63.14
46944;BME280;32678;43.852;25.952;2023-04-15T08:56:03;100668.75;;;16.65;63.63
46944;BME280;32678;43.852;25.952;2023-04-15T09:01:01;100674.28;;;16.91;63.05
46944;BME280;32678;43.852;25.952;2023-04-15T09:05:58;100677.59;;;17.37;58.75
46944;BME280;32678;43.852;25.952;2023-04-15T09:10:55;100675.44;;;17.29;60.06
46944;BME280;32678;43.852;25.952;2023-04-15T09:15:52;100678.19;;;17.42;60.23
46944;BME280;32678;43.852;25.952;2023-04-15T09:20:50;100674.22;;;17.49;60.71
46944;BME280;32678;43.852;25.952;2023-04-15T09:25:51;100679.09;;;17.83;60.18
46944;BME280;32678;43.852;25.952;2023-04-15T09:30:50;100674.31;;;18.02;59.02
46944;BME280;32678;43.852;25.952;2023-04-15T09:35:55;100677.34;;;18.23;57.12
46944;BME280;32678;43.852;25.952;2023-04-15T09:40:52;100666.41;;;18.28;55.72
46944;BME280;32678;43.852;25.952;2023-04-15T09:45:51;100661.63;;;18.47;55.95
46944;BME280;32678;43.852;25.952;2023-04-15T09:50:49;100663.84;;;18.53;52.93
46944;BME280;32678;43.852;25.952;2023-04-15T09:55:48;100657.13;;;18.62;52.37
46944;BME280;32678;43.852;25.952;2023-04-15T10:00:46;100655.50;;;18.72;52.29
46944;BME280;32678;43.852;25.952;2023-04-15T10:05:42;100657.97;;;18.75;48.36
46944;BME280;32678;43.852;25.952;2023-04-15T10:10:39;100656.81;;;18.79;49.42
46944;BME280;32678;43.852;25.952;2023-04-15T10:15:37;100647.84;;;18.54;51.21
46944;BME280;32678;43.852;25.952;2023-04-15T10:20:34;100650.81;;;18.63;49.75
46944;BME280;32678;43.852;25.952;2023-04-15T10:25:31;100650.84;;;18.75;49.60
46944;BME280;32678;43.852;25.952;2023-04-15T10:30:29;100641.81;;;18.78;49.44
46944;BME280;32678;43.852;25.952;2023-04-15T10:35:28;100665.44;;;18.95;47.86
46944;BME280;32678;43.852;25.952;2023-04-15T10:40:26;100658.84;;;19.00;45.76
46944;BME280;32678;43.852;25.952;2023-04-15T10:45:24;100654.28;;;19.15;46.98
46944;BME280;32678;43.852;25.952;2023-04-15T10:50:26;100655.31;;;19.25;47.27
46944;BME280;32678;43.852;25.952;2023-04-15T10:55:25;100637.66;;;19.24;47.00
46944;BME280;32678;43.852;25.952;2023-04-15T11:00:23;100649.34;;;19.34;45.64
46944;BME280;32678;43.852;25.952;2023-04-15T11:15:53;100659.41;;;19.67;41.66
46944;BME280;32678;43.852;25.952;2023-04-15T11:20:51;100656.66;;;19.69;40.91
46944;BME280;32678;43.852;25.952;2023-04-15T11:25:49;100643.59;;;19.53;40.61
46944;BME280;32678;43.852;25.952;2023-04-15T11:30:47;100645.69;;;19.61;41.75
46944;BME280;32678;43.852;25.952;2023-04-15T11:35:45;100646.19;;;19.78;41.44
46944;BME280;32678;43.852;25.952;2023-04-15T11:40:42;100656.50;;;19.83;39.98
46944;BME280;32678;43.852;25.952;2023-04-15T11:45:49;100651.03;;;19.84;41.07
46944;BME280;32678;43.852;25.952;2023-04-15T11:50:52;100647.56;;;19.84;40.30
46944;BME280;32678;43.852;25.952;2023-04-15T11:55:49;100631.91;;;19.79;41.27
46944;BME280;32678;43.852;25.952;2023-04-15T12:00:47;100637.69;;;19.97;41.87
46944;BME280;32678;43.852;25.952;2023-04-15T12:10:58;100623.13;;;19.90;40.09
46944;BME280;32678;43.852;25.952;2023-04-15T12:15:55;100599.38;;;19.76;40.49
46944;BME280;32678;43.852;25.952;2023-04-15T12:20:52;100616.00;;;19.90;41.13
46944;BME280;32678;43.852;25.952;2023-04-15T12:25:50;100609.50;;;19.95;40.42
46944;BME280;32678;43.852;25.952;2023-04-15T12:30:49;100609.72;;;19.92;39.88
46944;BME280;32678;43.852;25.952;2023-04-15T12:35:49;100606.13;;;19.93;40.12
46944;BME280;32678;43.852;25.952;2023-04-15T12:40:49;100613.97;;;19.94;40.44
46944;BME280;32678;43.852;25.952;2023-04-15T12:45:46;100614.09;;;19.93;40.46
46944;BME280;32678;43.852;25.952;2023-04-15T12:50:43;100610.59;;;19.92;41.03
46944;BME280;32678;43.852;25.952;2023-04-15T12:55:40;100616.06;;;20.02;41.02
46944;BME280;32678;43.852;25.952;2023-04-15T13:00:36;100614.78;;;20.07;41.01
46944;BME280;32678;43.852;25.952;2023-04-15T13:05:35;100621.66;;;20.10;39.01
46944;BME280;32678;43.852;25.952;2023-04-15T13:10:34;100617.69;;;20.15;38.62
46944;BME280;32678;43.852;25.952;2023-04-15T13:15:31;100615.03;;;20.15;38.67
46944;BME280;32678;43.852;25.952;2023-04-15T13:20:28;100618.91;;;20.11;38.17
46944;BME280;32678;43.852;25.952;2023-04-15T13:25:26;100620.09;;;20.07;37.34
46944;BME280;32678;43.852;25.952;2023-04-15T13:30:24;100629.28;;;20.03;37.85
46944;BME280;32678;43.852;25.952;2023-04-15T13:35:20;100618.72;;;20.02;37.57
46944;BME280;32678;43.852;25.952;2023-04-15T13:40:18;100626.38;;;20.06;38.68
46944;BME280;32678;43.852;25.952;2023-04-15T13:45:15;100629.13;;;20.05;38.25
46944;BME280;32678;43.852;25.952;2023-04-15T13:50:12;100629.28;;;20.03;38.17
46944;BME280;32678;43.852;25.952;2023-04-15T13:55:09;100634.47;;;20.05;38.03
46944;BME280;32678;43.852;25.952;2023-04-15T14:00:16;100637.03;;;20.06;38.44
46944;BME280;32678;43.852;25.952;2023-04-15T14:05:14;100635.81;;;20.10;38.11
46944;BME280;32678;43.852;25.952;2023-04-15T14:10:10;100632.44;;;20.08;37.96
46944;BME280;32678;43.852;25.952;2023-04-15T14:15:07;100632.44;;;20.08;37.63
46944;BME280;32678;43.852;25.952;2023-04-15T14:20:05;100637.63;;;20.10;37.80
46944;BME280;32678;43.852;25.952;2023-04-15T14:25:03;100638.59;;;20.09;37.86
46944;BME280;32678;43.852;25.952;2023-04-15T14:30:01;100648.53;;;20.07;38.00
46944;BME280;32678;43.852;25.952;2023-04-15T14:34:58;100643.19;;;20.07;37.90
46944;BME280;32678;43.852;25.952;2023-04-15T14:39:54;100652.03;;;20.07;37.75
46944;BME280;32678;43.852;25.952;2023-04-15T14:44:52;100632.38;;;19.97;36.68
46944;BME280;32678;43.852;25.952;2023-04-15T14:49:51;100653.94;;;20.05;36.78
46944;BME280;32678;43.852;25.952;2023-04-15T14:54:47;100653.94;;;20.05;36.78
46944;BME280;32678;43.852;25.952;2023-04-15T14:59:45;100664.69;;;20.04;36.96
46944;BME280;32678;43.852;25.952;2023-04-15T15:04:45;100667.25;;;20.05;37.38
46944;BME280;32678;43.852;25.952;2023-04-15T15:09:42;100664.81;;;20.02;37.29
46944;BME280;32678;43.852;25.952;2023-04-15T15:14:39;100668.69;;;19.98;37.62
46944;BME280;32678;43.852;25.952;2023-04-15T15:19:38;100665.03;;;19.99;37.75
46944;BME280;32678;43.852;25.952;2023-04-15T15:24:39;100655.47;;;19.97;36.93
46944;BME280;32678;43.852;25.952;2023-04-15T15:29:36;100658.06;;;19.85;37.39
46944;BME280;32678;43.852;25.952;2023-04-15T15:34:33;100663.25;;;19.63;38.08
46944;BME280;32678;43.852;25.952;2023-04-15T15:39:29;100652.41;;;19.41;38.55
46944;BME280;32678;43.852;25.952;2023-04-15T15:44:33;100654.56;;;19.49;37.90
46944;BME280;32678;43.852;25.952;2023-04-15T15:49:31;100646.22;;;19.66;37.61
46944;BME280;32678;43.852;25.952;2023-04-15T15:54:27;100649.09;;;19.63;37.54
46944;BME280;32678;43.852;25.952;2023-04-15T15:59:24;100637.53;;;19.38;37.93
46944;BME280;32678;43.852;25.952;2023-04-15T16:04:22;100639.59;;;19.71;37.66
46944;BME280;32678;43.852;25.952;2023-04-15T16:09:25;100637.78;;;19.72;37.32
46944;BME280;32678;43.852;25.952;2023-04-15T16:14:22;100630.38;;;19.64;37.38
46944;BME280;32678;43.852;25.952;2023-04-15T16:19:20;100625.59;;;19.57;37.01
46944;BME280;32678;43.852;25.952;2023-04-15T16:24:18;100624.56;;;19.46;37.06
46944;BME280;32678;43.852;25.952;2023-04-15T16:29:15;100628.03;;;19.60;37.20
46944;BME280;32678;43.852;25.952;2023-04-15T16:34:12;100631.53;;;19.60;37.16
46944;BME280;32678;43.852;25.952;2023-04-15T16:39:10;100627.03;;;19.50;37.82
46944;BME280;32678;43.852;25.952;2023-04-15T16:44:08;100609.16;;;19.39;38.05
46944;BME280;32678;43.852;25.952;2023-04-15T16:49:05;100631.16;;;19.54;37.71
46944;BME280;32678;43.852;25.952;2023-04-15T16:54:02;100628.84;;;19.49;37.86
46944;BME280;32678;43.852;25.952;2023-04-15T16:58:59;100637.53;;;19.26;38.60
46944;BME280;32678;43.852;25.952;2023-04-15T17:03:56;100645.50;;;19.26;38.78
46944;BME280;32678;43.852;25.952;2023-04-15T17:08:53;100619.91;;;19.12;39.31
46944;BME280;32678;43.852;25.952;2023-04-15T17:13:49;100644.03;;;19.22;38.78
46944;BME280;32678;43.852;25.952;2023-04-15T17:18:46;100656.56;;;19.32;38.57
46944;BME280;32678;43.852;25.952;2023-04-15T17:23:45;100662.97;;;19.30;38.45
46944;BME280;32678;43.852;25.952;2023-04-15T17:28:42;100662.88;;;19.19;38.93
46944;BME280;32678;43.852;25.952;2023-04-15T17:33:39;100672.00;;;19.27;39.29
46944;BME280;32678;43.852;25.952;2023-04-15T17:38:56;100680.84;;;19.15;39.51
46944;BME280;32678;43.852;25.952;2023-04-15T17:43:53;100689.22;;;19.09;40.11
46944;BME280;32678;43.852;25.952;2023-04-15T17:48:49;100688.28;;;19.10;40.22
46944;BME280;32678;43.852;25.952;2023-04-15T17:53:46;100688.59;;;18.93;40.24
46944;BME280;32678;43.852;25.952;2023-04-15T17:58:43;100694.44;;;18.98;40.23
46944;BME280;32678;43.852;25.952;2023-04-15T18:03:40;100699.44;;;19.02;40.29
46944;BME280;32678;43.852;25.952;2023-04-15T18:08:37;100699.75;;;18.85;40.84
46944;BME280;32678;43.852;25.952;2023-04-15T18:13:33;100698.53;;;18.77;41.03
46944;BME280;32678;43.852;25.952;2023-04-15T18:18:38;100702.94;;;18.51;42.00
46944;BME280;32678;43.852;25.952;2023-04-15T18:23:46;100710.66;;;18.41;42.27
46944;BME280;32678;43.852;25.952;2023-04-15T18:28:43;100722.38;;;18.51;41.91
46944;BME280;32678;43.852;25.952;2023-04-15T18:33:40;100723.41;;;18.76;41.36
46944;BME280;32678;43.852;25.952;2023-04-15T18:38:37;100706.63;;;18.88;41.68
46944;BME280;32678;43.852;25.952;2023-04-15T18:43:33;100729.81;;;18.98;41.34
46944;BME280;32678;43.852;25.952;2023-04-15T18:48:30;100733.97;;;18.90;41.21
46944;BME280;32678;43.852;25.952;2023-04-15T18:53:27;100728.44;;;18.93;41.13
46944;BME280;32678;43.852;25.952;2023-04-15T18:58:24;100740.53;;;18.84;41.26
46944;BME280;32678;43.852;25.952;2023-04-15T19:03:21;100737.66;;;18.87;41.06
46944;BME280;32678;43.852;25.952;2023-04-15T19:08:17;100741.81;;;18.79;41.14
46944;BME280;32678;43.852;25.952;2023-04-15T19:13:15;100738.28;;;18.66;41.74
46944;BME280;32678;43.852;25.952;2023-04-15T19:18:15;100732.03;;;18.79;41.53
46944;BME280;32678;43.852;25.952;2023-04-15T19:23:12;100735.31;;;18.70;41.89
46944;BME280;32678;43.852;25.952;2023-04-15T19:28:08;100733.06;;;18.64;42.34
46944;BME280;32678;43.852;25.952;2023-04-15T19:33:06;100735.81;;;18.63;42.37
46944;BME280;32678;43.852;25.952;2023-04-15T19:38:03;100730.97;;;18.28;42.41
46944;BME280;32678;43.852;25.952;2023-04-15T19:42:59;100738.53;;;18.34;42.18
46944;BME280;32678;43.852;25.952;2023-04-15T19:47:56;100733.00;;;18.51;42.08
46944;BME280;32678;43.852;25.952;2023-04-15T19:52:54;100733.41;;;18.45;41.54
46944;BME280;32678;43.852;25.952;2023-04-15T19:57:50;100731.56;;;18.60;41.53
46944;BME280;32678;43.852;25.952;2023-04-15T20:02:47;100736.03;;;18.45;41.23
46944;BME280;32678;43.852;25.952;2023-04-15T20:07:44;100738.97;;;18.55;41.21
46944;BME280;32678;43.852;25.952;2023-04-15T20:12:44;100742.84;;;18.49;41.39
46944;BME280;32678;43.852;25.952;2023-04-15T20:17:48;100746.56;;;18.47;41.66
46944;BME280;32678;43.852;25.952;2023-04-15T20:22:44;100745.91;;;18.43;41.56
46944;BME280;32678;43.852;25.952;2023-04-15T20:27:44;100750.25;;;18.44;41.69
46944;BME280;32678;43.852;25.952;2023-04-15T20:32:40;100745.72;;;18.46;41.87
46944;BME280;32678;43.852;25.952;2023-04-15T20:37:37;100744.41;;;18.39;41.95
46944;BME280;32678;43.852;25.952;2023-04-15T20:42:35;100746.41;;;18.36;42.21
46944;BME280;32678;43.852;25.952;2023-04-15T20:47:32;100742.25;;;18.32;42.39
46944;BME280;32678;43.852;25.952;2023-04-15T20:52:29;100743.00;;;18.34;42.55
46944;BME280;32678;43.852;25.952;2023-04-15T20:57:26;100745.97;;;18.29;42.81
46944;BME280;32678;43.852;25.952;2023-04-15T21:02:25;100740.34;;;18.34;42.92
46944;BME280;32678;43.852;25.952;2023-04-15T21:07:22;100739.09;;;18.39;42.79
46944;BME280;32678;43.852;25.952;2023-04-15T21:12:19;100747.06;;;18.39;42.93
46944;BME280;32678;43.852;25.952;2023-04-15T21:17:15;100719.41;;;18.02;43.70
46944;BME280;32678;43.852;25.952;2023-04-15T21:22:12;100735.63;;;18.25;43.56
46944;BME280;32678;43.852;25.952;2023-04-15T21:27:09;100734.91;;;18.23;44.05
46944;BME280;32678;43.852;25.952;2023-04-15T21:32:06;100740.69;;;18.15;44.25
46944;BME280;32678;43.852;25.952;2023-04-15T21:37:03;100737.91;;;17.90;45.18
46944;BME280;32678;43.852;25.952;2023-04-15T21:41:59;100741.50;;;17.89;45.58
46944;BME280;32678;43.852;25.952;2023-04-15T21:46:59;100737.91;;;17.90;45.95
46944;BME280;32678;43.852;25.952;2023-04-15T21:51:56;100734.00;;;17.95;46.44
46944;BME280;32678;43.852;25.952;2023-04-15T21:56:55;100736.63;;;18.09;46.49
46944;BME280;32678;43.852;25.952;2023-04-15T22:01:52;100732.56;;;18.04;47.21
46944;BME280;32678;43.852;25.952;2023-04-15T22:06:50;100732.31;;;17.80;48.18
46944;BME280;32678;43.852;25.952;2023-04-15T22:11:50;100731.09;;;17.86;48.85
46944;BME280;32678;43.852;25.952;2023-04-15T22:16:47;100730.63;;;17.93;49.20
46944;BME280;32678;43.852;25.952;2023-04-15T22:21:43;100728.53;;;17.70;50.26
46944;BME280;32678;43.852;25.952;2023-04-15T22:26:42;100726.25;;;17.36;51.44
46944;BME280;32678;43.852;25.952;2023-04-15T22:31:39;100726.72;;;17.14;52.84
46944;BME280;32678;43.852;25.952;2023-04-15T22:36:36;100700.78;;;17.05;53.58
46944;BME280;32678;43.852;25.952;2023-04-15T22:41:33;100719.13;;;17.08;53.92
46944;BME280;32678;43.852;25.952;2023-04-15T22:46:30;100716.72;;;17.33;53.58
46944;BME280;32678;43.852;25.952;2023-04-15T22:51:27;100707.31;;;17.42;53.24
46944;BME280;32678;43.852;25.952;2023-04-15T22:56:24;100690.47;;;17.43;52.97
46944;BME280;32678;43.852;25.952;2023-04-15T23:01:21;100706.28;;;17.30;53.88
46944;BME280;32678;43.852;25.952;2023-04-15T23:06:18;100682.63;;;17.27;53.97
46944;BME280;32678;43.852;25.952;2023-04-15T23:11:15;100698.53;;;17.41;53.93
46944;BME280;32678;43.852;25.952;2023-04-15T23:16:11;100697.38;;;17.31;54.56
46944;BME280;32678;43.852;25.952;2023-04-15T23:21:08;100703.81;;;17.41;54.71
46944;BME280;32678;43.852;25.952;2023-04-15T23:26:05;100703.25;;;17.22;55.76
46944;BME280;32678;43.852;25.952;2023-04-15T23:31:02;100704.81;;;16.96;56.10
46944;BME280;32678;43.852;25.952;2023-04-15T23:35:59;100694.91;;;16.85;56.97
46944;BME280;32678;43.852;25.952;2023-04-15T23:40:55;100696.44;;;17.04;56.60
46944;BME280;32678;43.852;25.952;2023-04-15T23:45:53;100694.72;;;17.03;56.83
46944;BME280;32678;43.852;25.952;2023-04-15T23:50:49;100676.75;;;16.94;58.06
46944;BME280;32678;43.852;25.952;2023-04-15T23:55:46;100672.94;;;16.83;59.14
